Time;durP1;ratioP1;P1;durP2;ratioP2;P2;SDS_P1;SDS_P2;PMS_P1;PMS_P2;Temp;Humidity;BMP_temperature;BMP_pressure;BME280_temperature;BME280_humidity;BME280_pressure;Samples;Min_cycle;Max_cycle;Signal;HPM_P1;HPM_P2
2021/12/13 00:02:02;;;;;;;104.50;21.10;;;;;;;;;;4870806;29;20792;-81
2021/12/13 00:04:40;;;;;;;66.63;13.52;;;;;;;;;;4865503;29;20032;-81
2021/12/13 00:07:09;;;;;;;85.93;17.20;;;;;;;;;;4868009;29;20481;-82
2021/12/13 00:09:42;;;;;;;93.38;18.48;;;;;;;;;;4872170;29;20544;-80
2021/12/13 00:12:09;;;;;;;67.53;16.88;;;;;;;;;;4871130;29;20075;-82
2021/12/13 00:14:46;;;;;;;63.40;15.50;;;;;;;;;;4856161;29;20064;-81
2021/12/13 00:17:15;;;;;;;82.68;17.55;;;;;;;;;;4854784;29;20029;-81
2021/12/13 00:19:44;;;;;;;53.67;14.90;;;;;;;;;;4852676;29;20036;-81
2021/12/13 00:22:14;;;;;;;49.38;12.15;;;;;;;;;;4852848;29;20031;-81
2021/12/13 00:24:41;;;;;;;41.90;8.65;;;;;;;;;;4853870;29;20085;-81
2021/12/13 00:27:18;;;;;;;65.55;14.38;;;;;;;;;;4869658;29;20502;-81
2021/12/13 00:30:04;;;;;;;53.97;14.40;;;;;;;;;;4853387;29;20426;-81
2021/12/13 00:32:50;;;;;;;95.68;18.10;;;;;;;;;;4856753;29;20108;-81
2021/12/13 00:35:19;;;;;;;65.50;14.43;;;;;;;;;;4851781;29;20067;-81
2021/12/13 00:37:51;;;;;;;64.40;14.40;;;;;;;;;;4853216;29;20029;-81
2021/12/13 00:40:19;;;;;;;81.30;17.40;;;;;;;;;;4853245;29;20528;-81
2021/12/13 00:43:04;;;;;;;77.75;17.55;;;;;;;;;;4849068;29;20105;-80
2021/12/13 00:45:33;;;;;;;75.63;16.98;;;;;;;;;;4853890;29;20029;-81
2021/12/13 00:48:02;;;;;;;35.83;8.75;;;;;;;;;;4854447;29;20024;-81
2021/12/13 00:50:33;;;;;;;88.47;18.67;;;;;;;;;;4866659;29;20749;-81
2021/12/13 00:52:59;;;;;;;75.20;17.92;;;;;;;;;;4853894;29;20045;-82
2021/12/13 00:55:30;;;;;;;93.85;19.42;;;;;;;;;;4856723;29;20057;-81
2021/12/13 00:58:14;;;;;;;65.13;14.43;;;;;;;;;;4865285;29;20144;-82
2021/12/13 01:00:51;;;;;;;94.28;19.33;;;;;;;;;;4865895;29;20041;-81
2021/12/13 01:03:26;;;;;;;70.97;16.75;;;;;;;;;;4868447;29;20033;-82
2021/12/13 01:06:11;;;;;;;85.82;19.30;;;;;;;;;;4865882;29;20033;-82
2021/12/13 01:08:52;;;;;;;87.28;19.15;;;;;;;;;;4867376;29;20029;-81
2021/12/13 01:11:41;;;;;;;92.28;19.83;;;;;;;;;;4867640;29;20037;-81
2021/12/13 01:14:20;;;;;;;86.03;19.08;;;;;;;;;;4850953;29;20033;-81
2021/12/13 01:16:53;;;;;;;86.72;19.15;;;;;;;;;;4851512;29;20036;-81
2021/12/13 01:19:28;;;;;;;104.75;22.38;;;;;;;;;;4868113;29;20365;-81
2021/12/13 01:22:13;;;;;;;47.65;11.45;;;;;;;;;;4868113;29;20028;-81
2021/12/13 01:25:15;;;;;;;90.40;19.80;;;;;;;;;;4868467;29;20025;-81
2021/12/13 01:27:40;;;;;;;85.85;17.27;;;;;;;;;;4867724;29;20045;-81
2021/12/13 01:30:21;;;;;;;93.70;20.95;;;;;;;;;;4868367;29;20036;-81
2021/12/13 01:32:49;;;;;;;100.93;22.63;;;;;;;;;;4853504;29;20037;-81
2021/12/13 01:35:18;;;;;;;60.15;14.55;;;;;;;;;;4854540;29;20081;-81
2021/12/13 01:37:50;;;;;;;70.45;15.77;;;;;;;;;;4853042;29;20041;-82
2021/12/13 01:40:17;;;;;;;96.25;19.65;;;;;;;;;;4865015;29;20719;-81
2021/12/13 01:42:43;;;;;;;92.03;18.77;;;;;;;;;;4854716;29;20037;-82
2021/12/13 01:45:14;;;;;;;88.57;18.17;;;;;;;;;;4866752;29;20108;-81
2021/12/13 01:47:42;;;;;;;76.93;15.10;;;;;;;;;;4854450;29;20021;-82
2021/12/13 01:50:17;;;;;;;75.45;17.80;;;;;;;;;;4853193;29;20076;-81
2021/12/13 01:52:44;;;;;;;79.90;18.23;;;;;;;;;;4853650;29;20040;-81
2021/12/13 01:55:14;;;;;;;73.55;17.13;;;;;;;;;;4865613;29;20029;-81
2021/12/13 01:57:47;;;;;;;66.30;15.13;;;;;;;;;;4865730;29;20067;-79
2021/12/13 02:00:21;;;;;;;76.85;17.38;;;;;;;;;;4851217;29;20043;-80
2021/12/13 02:02:54;;;;;;;82.55;17.05;;;;;;;;;;4866650;29;20068;-81
2021/12/13 02:05:25;;;;;;;73.30;15.38;;;;;;;;;;4852529;29;20418;-81
2021/12/13 02:08:07;;;;;;;71.65;17.75;;;;;;;;;;4852121;29;20485;-81
2021/12/13 02:10:38;;;;;;;32.15;8.90;;;;;;;;;;4867500;29;20043;-81
2021/12/13 02:13:21;;;;;;;67.30;14.48;;;;;;;;;;4853446;29;20037;-81
2021/12/13 02:18:38;;;;;;;66.68;15.00;;;;;;;;;;4871721;29;20052;-81
2021/12/13 02:21:17;;;;;;;76.80;17.92;;;;;;;;;;4865745;29;20556;-82
2021/12/13 02:23:46;;;;;;;89.72;19.40;;;;;;;;;;4856468;29;20040;-81
2021/12/13 02:26:13;;;;;;;73.55;17.17;;;;;;;;;;4854389;29;20057;-82
2021/12/13 02:28:40;;;;;;;85.65;16.88;;;;;;;;;;4857679;29;20025;-81
2021/12/13 02:31:08;;;;;;;83.72;19.88;;;;;;;;;;4870878;29;20080;-81
2021/12/13 02:34:03;;;;;;;75.57;16.27;;;;;;;;;;4870544;29;20052;-81
2021/12/13 02:36:39;;;;;;;78.90;18.95;;;;;;;;;;4867699;29;20049;-81
2021/12/13 02:39:05;;;;;;;;;;;;;;;;;;4856367;29;20037;-81
2021/12/13 02:41:32;;;;;;;96.82;20.23;;;;;;;;;;4856638;29;19963;-82
2021/12/13 02:44:02;;;;;;;86.25;20.35;;;;;;;;;;4858495;29;20041;-79
2021/12/13 02:46:28;;;;;;;100.45;21.48;;;;;;;;;;4854846;29;20044;-82
2021/12/13 02:48:59;;;;;;;105.18;21.88;;;;;;;;;;4856788;29;20033;-81
2021/12/13 02:51:27;;;;;;;89.57;19.27;;;;;;;;;;4854663;29;20124;-81
2021/12/13 02:54:03;;;;;;;111.40;19.50;;;;;;;;;;4857184;29;20386;-81
2021/12/13 02:56:33;;;;;;;99.18;25.40;;;;;;;;;;4855656;29;20041;-82
2021/12/13 02:59:00;;;;;;;55.13;12.57;;;;;;;;;;4872657;29;20061;-82
2021/12/13 03:01:30;;;;;;;63.28;13.02;;;;;;;;;;4855737;29;20029;-81
2021/12/13 03:04:04;;;;;;;71.30;18.33;;;;;;;;;;4869917;29;20025;-82
2021/12/13 03:06:32;;;;;;;104.95;23.58;;;;;;;;;;4848401;29;20715;-82
2021/12/13 03:09:01;;;;;;;96.10;24.52;;;;;;;;;;4855818;29;21636;-81
2021/12/13 03:11:32;;;;;;;112.05;22.15;;;;;;;;;;4851327;29;20105;-82
2021/12/13 03:14:08;;;;;;;105.30;22.02;;;;;;;;;;4854851;29;20033;-81
2021/12/13 03:16:46;;;;;;;92.95;19.90;;;;;;;;;;4870722;29;20041;-80
2021/12/13 03:19:22;;;;;;;99.40;20.95;;;;;;;;;;4865080;29;20068;-82
2021/12/13 03:22:04;;;;;;;95.53;20.63;;;;;;;;;;4856264;29;20687;-82
2021/12/13 03:24:36;;;;;;;111.65;23.33;;;;;;;;;;4873075;29;20115;-81
2021/12/13 03:27:06;;;;;;;98.00;22.20;;;;;;;;;;4866198;29;20110;-81
2021/12/13 03:29:51;;;;;;;83.10;18.58;;;;;;;;;;4854614;29;20033;-82
2021/12/13 03:32:19;;;;;;;109.97;20.40;;;;;;;;;;4865443;29;20029;-81
2021/12/13 03:34:52;;;;;;;73.97;15.55;;;;;;;;;;4867352;29;20045;-82
2021/12/13 03:37:21;;;;;;;85.90;15.93;;;;;;;;;;4853692;29;20041;-82
2021/12/13 03:40:09;;;;;;;79.05;17.70;;;;;;;;;;4856351;29;20493;-81
2021/12/13 03:42:44;;;;;;;99.75;23.75;;;;;;;;;;4869022;29;20501;-81
2021/12/13 03:45:14;;;;;;;98.43;22.48;;;;;;;;;;4854609;29;20071;-82
2021/12/13 03:47:43;;;;;;;79.18;18.52;;;;;;;;;;4849133;29;20478;-81
2021/12/13 03:50:18;;;;;;;95.47;21.63;;;;;;;;;;4852515;29;20040;-81
2021/12/13 03:52:46;;;;;;;112.20;22.40;;;;;;;;;;4869555;29;20087;-81
2021/12/13 03:55:13;;;;;;;86.85;20.85;;;;;;;;;;4853021;29;20041;-81
2021/12/13 03:57:43;;;;;;;90.45;21.75;;;;;;;;;;4854535;29;20587;-82
2021/12/13 04:00:12;;;;;;;98.05;20.60;;;;;;;;;;4865920;29;20085;-81
2021/12/13 04:02:40;;;;;;;101.45;20.63;;;;;;;;;;4866822;29;20025;-82
2021/12/13 04:05:08;;;;;;;82.72;19.88;;;;;;;;;;4864580;29;20033;-82
2021/12/13 04:07:37;;;;;;;60.50;14.65;;;;;;;;;;4871073;29;20471;-81
2021/12/13 04:10:10;;;;;;;60.85;10.60;;;;;;;;;;4854040;29;20477;-82
2021/12/13 04:12:45;;;;;;;76.18;14.57;;;;;;;;;;4870079;29;20539;-80
2021/12/13 04:15:19;;;;;;;66.28;16.73;;;;;;;;;;4853465;29;20064;-82
2021/12/13 04:17:59;;;;;;;60.50;13.18;;;;;;;;;;4866264;29;20064;-80
2021/12/13 04:20:28;;;;;;;56.22;14.35;;;;;;;;;;4868986;29;20056;-82
2021/12/13 04:22:57;;;;;;;59.10;11.68;;;;;;;;;;4851965;29;20025;-82
2021/12/13 04:25:26;;;;;;;38.60;8.23;;;;;;;;;;4853279;29;20045;-81
2021/12/13 04:27:58;;;;;;;45.72;10.55;;;;;;;;;;4852651;29;20524;-82
2021/12/13 04:30:30;;;;;;;61.13;12.52;;;;;;;;;;4846312;29;20055;-79
2021/12/13 04:32:59;;;;;;;52.80;10.77;;;;;;;;;;4839274;29;20030;-81
2021/12/13 04:35:26;;;;;;;41.90;10.35;;;;;;;;;;4849435;29;20052;-82
2021/12/13 04:37:54;;;;;;;41.50;11.35;;;;;;;;;;4848535;29;20093;-80
2021/12/13 04:40:23;;;;;;;41.65;11.18;;;;;;;;;;4851041;29;20500;-80
2021/12/13 04:43:06;;;;;;;39.10;9.45;;;;;;;;;;4832189;29;20029;-81
2021/12/13 04:45:35;;;;;;;43.63;10.15;;;;;;;;;;4834831;29;20773;-82
2021/12/13 04:48:22;;;;;;;41.65;10.45;;;;;;;;;;4847402;29;20033;-80
2021/12/13 04:50:53;;;;;;;42.17;11.13;;;;;;;;;;4845381;29;20044;-81
2021/12/13 04:53:22;;;;;;;56.13;11.63;;;;;;;;;;4838204;29;20502;-80
2021/12/13 04:55:48;;;;;;;47.05;10.95;;;;;;;;;;4836329;29;20033;-81
2021/12/13 04:58:16;;;;;;;48.97;10.65;;;;;;;;;;4847291;29;20041;-81
2021/12/13 05:00:47;;;;;;;41.70;10.00;;;;;;;;;;4834447;29;20033;-81
2021/12/13 05:03:15;;;;;;;39.38;10.85;;;;;;;;;;4848756;29;20070;-81
2021/12/13 05:05:41;;;;;;;31.95;8.85;;;;;;;;;;4833058;29;20081;-82
2021/12/13 05:08:10;;;;;;;35.08;7.00;;;;;;;;;;4837411;29;20029;-81
2021/12/13 05:10:36;;;;;;;38.08;9.98;;;;;;;;;;4849485;29;20037;-82
2021/12/13 05:13:11;;;;;;;27.15;8.05;;;;;;;;;;4857637;29;20068;-82
2021/12/13 05:15:39;;;;;;;35.92;8.32;;;;;;;;;;4832398;29;20565;-86
2021/12/13 05:18:07;;;;;;;19.35;4.97;;;;;;;;;;4850725;29;20061;-87
2021/12/13 05:20:35;;;;;;;31.80;7.35;;;;;;;;;;4852031;29;20486;-87
2021/12/13 05:23:15;;;;;;;24.83;7.93;;;;;;;;;;4853518;29;20065;-87
2021/12/13 05:25:49;;;;;;;27.40;6.57;;;;;;;;;;4852315;29;20524;-82
2021/12/13 05:28:38;;;;;;;27.38;7.35;;;;;;;;;;4853712;29;20045;-82
2021/12/13 05:31:06;;;;;;;28.35;6.35;;;;;;;;;;4851946;29;20578;-82
2021/12/13 05:33:35;;;;;;;20.27;5.22;;;;;;;;;;4855009;29;20577;-81
2021/12/13 05:36:03;;;;;;;19.70;5.75;;;;;;;;;;4864100;29;20029;-82
2021/12/13 05:38:42;;;;;;;30.63;6.82;;;;;;;;;;4865856;29;20486;-81
2021/12/13 05:41:11;;;;;;;19.42;5.97;;;;;;;;;;4863827;29;20056;-80
2021/12/13 05:43:49;;;;;;;23.35;6.57;;;;;;;;;;4853205;29;20037;-82
2021/12/13 05:46:18;;;;;;;19.33;4.47;;;;;;;;;;4852912;29;20049;-81
2021/12/13 05:48:47;;;;;;;20.05;6.75;;;;;;;;;;4857176;29;20512;-81
2021/12/13 05:51:19;;;;;;;13.55;5.80;;;;;;;;;;4869738;29;20064;-82
2021/12/13 05:53:46;;;;;;;17.00;5.97;;;;;;;;;;4856710;29;20048;-82
2021/12/13 05:56:22;;;;;;;31.42;7.85;;;;;;;;;;4856907;29;20061;-81
2021/12/13 05:58:57;;;;;;;29.92;6.47;;;;;;;;;;4856604;29;20568;-81
2021/12/13 06:01:40;;;;;;;23.85;7.22;;;;;;;;;;4872370;29;20036;-81
2021/12/13 06:04:06;;;;;;;24.77;6.65;;;;;;;;;;4856542;29;20039;-81
2021/12/13 06:06:33;;;;;;;11.77;4.07;;;;;;;;;;4855338;29;20037;-81
2021/12/13 06:08:59;;;;;;;29.10;7.38;;;;;;;;;;4870735;29;20033;-81
2021/12/13 06:11:33;;;;;;;22.17;8.02;;;;;;;;;;4849927;29;20572;-80
2021/12/13 06:14:04;;;;;;;19.52;7.47;;;;;;;;;;4869945;29;20036;-81
2021/12/13 06:16:40;;;;;;;31.17;8.20;;;;;;;;;;4855259;29;20049;-80
2021/12/13 06:19:09;;;;;;;32.50;9.23;;;;;;;;;;4859170;29;20510;-81
2021/12/13 06:21:39;;;;;;;31.52;9.70;;;;;;;;;;4854715;29;20187;-79
2021/12/13 06:24:05;;;;;;;38.78;9.90;;;;;;;;;;4856396;29;20029;-81
2021/12/13 06:26:38;;;;;;;19.60;7.05;;;;;;;;;;4857920;29;20064;-81
2021/12/13 06:29:10;;;;;;;39.33;9.23;;;;;;;;;;4868806;29;20021;-82
2021/12/13 06:31:41;;;;;;;28.58;8.95;;;;;;;;;;4855245;29;20025;-81
2021/12/13 06:34:13;;;;;;;37.17;9.40;;;;;;;;;;4858279;29;20037;-81
2021/12/13 06:36:41;;;;;;;36.67;12.80;;;;;;;;;;4870303;29;20040;-82
2021/12/13 06:39:31;;;;;;;33.47;10.07;;;;;;;;;;4869693;29;20033;-80
2021/12/13 06:42:06;;;;;;;20.27;7.22;;;;;;;;;;4859226;29;20041;-81
2021/12/13 06:44:41;;;;;;;29.80;9.43;;;;;;;;;;4857260;29;20124;-81
2021/12/13 06:47:07;;;;;;;35.35;8.80;;;;;;;;;;4854946;29;20049;-81
2021/12/13 06:49:36;;;;;;;25.42;8.05;;;;;;;;;;4858360;29;20044;-81
2021/12/13 06:52:05;;;;;;;31.42;10.10;;;;;;;;;;4854527;29;20056;-82
2021/12/13 06:54:36;;;;;;;28.13;10.25;;;;;;;;;;4872235;29;20068;-81
2021/12/13 06:57:08;;;;;;;21.00;7.13;;;;;;;;;;4869506;29;20100;-80
2021/12/13 06:59:36;;;;;;;31.98;10.50;;;;;;;;;;4855344;29;20036;-80
2021/12/13 07:02:10;;;;;;;36.63;12.68;;;;;;;;;;4853449;29;20152;-81
2021/12/13 07:04:38;;;;;;;29.90;9.32;;;;;;;;;;4852179;29;20195;-81
2021/12/13 07:07:09;;;;;;;23.77;8.40;;;;;;;;;;4855692;29;20711;-81
2021/12/13 07:09:38;;;;;;;27.35;7.90;;;;;;;;;;4850427;29;20044;-80
2021/12/13 07:12:11;;;;;;;23.45;8.10;;;;;;;;;;4866652;29;20035;-82
2021/12/13 07:14:39;;;;;;;22.27;7.72;;;;;;;;;;4868237;29;20036;-81
2021/12/13 07:17:16;;;;;;;25.98;7.38;;;;;;;;;;4868015;29;20109;-81
2021/12/13 07:19:44;;;;;;;29.05;9.10;;;;;;;;;;4853947;29;20062;-81
2021/12/13 07:22:16;;;;;;;31.40;9.88;;;;;;;;;;4867651;29;20573;-82
2021/12/13 07:24:52;;;;;;;31.33;11.25;;;;;;;;;;4865482;29;20093;-82
2021/12/13 07:27:23;;;;;;;36.85;12.13;;;;;;;;;;4843388;29;20136;-81
2021/12/13 07:29:57;;;;;;;29.63;9.35;;;;;;;;;;4855877;29;20030;-81
2021/12/13 07:32:23;;;;;;;29.45;9.32;;;;;;;;;;4848938;29;20048;-81
2021/12/13 07:34:55;;;;;;;34.72;12.48;;;;;;;;;;4833696;29;20313;-81
2021/12/13 07:37:36;;;;;;;27.23;10.55;;;;;;;;;;4850105;29;20053;-82
2021/12/13 07:40:16;;;;;;;31.85;10.73;;;;;;;;;;4833683;29;20048;-82
2021/12/13 07:43:02;;;;;;;32.25;9.75;;;;;;;;;;4847628;29;20494;-81
2021/12/13 07:45:47;;;;;;;27.15;10.95;;;;;;;;;;4834049;29;20414;-81
2021/12/13 07:48:18;;;;;;;28.65;9.30;;;;;;;;;;4838754;29;20056;-82
2021/12/13 07:50:46;;;;;;;27.60;11.95;;;;;;;;;;4848683;29;20796;-82
2021/12/13 07:53:14;;;;;;;39.67;11.27;;;;;;;;;;4834266;29;20090;-81
2021/12/13 07:55:46;;;;;;;35.13;12.43;;;;;;;;;;4836819;29;20136;-82
2021/12/13 07:58:14;;;;;;;26.38;9.82;;;;;;;;;;4836475;29;20120;-80
2021/12/13 08:00:41;;;;;;;28.50;11.52;;;;;;;;;;4850595;29;20070;-82
2021/12/13 08:03:12;;;;;;;29.17;12.02;;;;;;;;;;4844828;29;20041;-82
2021/12/13 08:05:44;;;;;;;34.13;11.02;;;;;;;;;;4837068;29;20038;-81
2021/12/13 08:08:16;;;;;;;37.70;12.70;;;;;;;;;;4836243;29;20026;-82
2021/12/13 08:10:43;;;;;;;31.17;12.15;;;;;;;;;;4831920;29;20037;-83
2021/12/13 08:13:35;;;;;;;40.72;14.38;;;;;;;;;;4852668;29;20748;-81
2021/12/13 08:16:03;;;;;;;48.25;15.18;;;;;;;;;;4830209;29;20050;-83
2021/12/13 08:18:40;;;;;;;34.53;12.93;;;;;;;;;;4852027;29;20450;-82
2021/12/13 08:21:08;;;;;;;38.90;13.40;;;;;;;;;;4834634;29;20119;-82
2021/12/13 08:23:40;;;;;;;40.00;13.60;;;;;;;;;;4850608;29;20033;-81
2021/12/13 08:26:07;;;;;;;32.45;12.68;;;;;;;;;;4835841;29;20486;-81
2021/12/13 08:28:50;;;;;;;29.83;12.48;;;;;;;;;;4853694;29;20111;-80
2021/12/13 08:31:36;;;;;;;36.58;12.68;;;;;;;;;;4854575;29;20392;-82
2021/12/13 08:34:07;;;;;;;44.78;14.25;;;;;;;;;;4866863;29;20032;-82
2021/12/13 08:36:39;;;;;;;47.38;16.98;;;;;;;;;;4851545;29;20029;-82
2021/12/13 08:39:10;;;;;;;50.30;16.30;;;;;;;;;;4851560;29;20029;-81
2021/12/13 08:41:44;;;;;;;40.30;14.43;;;;;;;;;;4847805;29;20674;-82
2021/12/13 08:44:10;;;;;;;35.80;13.88;;;;;;;;;;4852376;29;20427;-80
2021/12/13 08:46:54;;;;;;;37.08;14.25;;;;;;;;;;4852221;29;20112;-83
2021/12/13 08:49:24;;;;;;;37.35;14.20;;;;;;;;;;4871771;29;20096;-81
2021/12/13 08:51:53;;;;;;;36.50;14.23;;;;;;;;;;4852711;29;20045;-80
2021/12/13 08:54:21;;;;;;;41.38;15.73;;;;;;;;;;4867514;29;20036;-79
2021/12/13 08:56:49;;;;;;;38.75;13.57;;;;;;;;;;4849011;29;20058;-82
2021/12/13 08:59:26;;;;;;;44.05;15.13;;;;;;;;;;4851885;29;20031;-81
2021/12/13 09:02:03;;;;;;;33.70;11.82;;;;;;;;;;4856343;29;20039;-81
2021/12/13 09:04:35;;;;;;;32.78;10.85;;;;;;;;;;4850740;29;20037;-82
2021/12/13 09:07:05;;;;;;;34.40;13.65;;;;;;;;;;4867265;29;20591;-81
2021/12/13 09:09:32;;;;;;;32.88;13.63;;;;;;;;;;4850740;29;20071;-79
2021/12/13 09:12:00;;;;;;;25.45;10.70;;;;;;;;;;4862354;29;20037;-80
2021/12/13 09:14:35;;;;;;;33.60;13.90;;;;;;;;;;4849001;29;20124;-81
2021/12/13 09:17:25;;;;;;;29.63;13.57;;;;;;;;;;4869753;29;20041;-83
2021/12/13 09:20:07;;;;;;;34.97;11.98;;;;;;;;;;4872529;29;20496;-82
2021/12/13 09:22:38;;;;;;;29.23;13.35;;;;;;;;;;4854150;29;20450;-83
2021/12/13 09:25:11;;;;;;;28.45;11.77;;;;;;;;;;4856056;29;20045;-82
2021/12/13 09:27:40;;;;;;;28.85;13.38;;;;;;;;;;4859874;29;20053;-82
2021/12/13 09:30:12;;;;;;;33.38;15.13;;;;;;;;;;4836403;29;20610;-81
2021/12/13 09:32:38;;;;;;;32.90;14.63;;;;;;;;;;4838842;29;20037;-82
2021/12/13 09:35:23;;;;;;;31.80;12.52;;;;;;;;;;4844028;29;20545;-81
2021/12/13 09:37:51;;;;;;;30.48;13.48;;;;;;;;;;4842432;29;20030;-81
2021/12/13 09:40:18;;;;;;;31.10;13.82;;;;;;;;;;4834457;29;20046;-81
2021/12/13 09:42:49;;;;;;;19.73;9.15;;;;;;;;;;4840208;29;20082;-82
2021/12/13 09:45:22;;;;;;;23.20;12.30;;;;;;;;;;4837268;29;20034;-80
2021/12/13 09:47:48;;;;;;;28.00;12.80;;;;;;;;;;4854012;29;21042;-83
2021/12/13 09:50:16;;;;;;;26.75;12.02;;;;;;;;;;4841349;29;20048;-82
2021/12/13 09:52:43;;;;;;;26.70;12.70;;;;;;;;;;4838993;29;20032;-82
2021/12/13 09:55:09;;;;;;;29.83;13.50;;;;;;;;;;4853513;29;20536;-82
2021/12/13 09:57:37;;;;;;;28.23;13.48;;;;;;;;;;4839290;29;20081;-82
2021/12/13 10:00:19;;;;;;;30.25;14.20;;;;;;;;;;4839182;29;20081;-82
2021/12/13 10:02:48;;;;;;;26.75;10.73;;;;;;;;;;4852853;29;20068;-81
2021/12/13 10:05:17;;;;;;;34.15;13.40;;;;;;;;;;4851513;29;20513;-80
2021/12/13 10:07:45;;;;;;;23.45;10.75;;;;;;;;;;4838385;29;20041;-81
2021/12/13 10:10:17;;;;;;;28.67;12.98;;;;;;;;;;4840917;29;20478;-81
2021/12/13 10:12:46;;;;;;;29.38;12.57;;;;;;;;;;4845750;29;20030;-81
2021/12/13 10:15:15;;;;;;;22.98;12.13;;;;;;;;;;4841167;29;20070;-81
2021/12/13 10:17:44;;;;;;;24.63;11.98;;;;;;;;;;4839675;29;20092;-81
2021/12/13 10:20:12;;;;;;;19.70;10.63;;;;;;;;;;4842649;29;20029;-82
2021/12/13 10:22:39;;;;;;;21.45;9.85;;;;;;;;;;4837995;29;20033;-80
2021/12/13 10:25:26;;;;;;;21.17;10.00;;;;;;;;;;4838378;29;20057;-82
2021/12/13 10:28:00;;;;;;;21.30;10.32;;;;;;;;;;4853364;29;20739;-81
2021/12/13 10:30:28;;;;;;;29.15;12.55;;;;;;;;;;4851893;29;20029;-81
2021/12/13 10:32:54;;;;;;;25.30;11.80;;;;;;;;;;4836406;29;20120;-80
2021/12/13 10:35:22;;;;;;;34.47;12.63;;;;;;;;;;4852831;29;20068;-80
2021/12/13 10:37:51;;;;;;;27.25;11.82;;;;;;;;;;4835863;29;20145;-80
2021/12/13 10:40:19;;;;;;;22.00;7.03;;;;;;;;;;4836004;29;20406;-79
2021/12/13 10:42:48;;;;;;;19.65;10.82;;;;;;;;;;4833413;29;20479;-80
2021/12/13 10:45:16;;;;;;;21.23;10.85;;;;;;;;;;4838705;29;20041;-80
2021/12/13 10:47:43;;;;;;;21.05;11.25;;;;;;;;;;4849829;29;20066;-80
2021/12/13 10:50:13;;;;;;;27.63;10.93;;;;;;;;;;4854658;29;20078;-80
2021/12/13 10:52:41;;;;;;;23.20;10.82;;;;;;;;;;4834906;29;20132;-79
2021/12/13 10:55:29;;;;;;;22.88;11.30;;;;;;;;;;4837708;29;20069;-80
2021/12/13 10:57:55;;;;;;;24.85;10.75;;;;;;;;;;4854110;29;20042;-81
2021/12/13 11:00:31;;;;;;;12.50;6.45;;;;;;;;;;4839756;29;20124;-81
2021/12/13 11:03:00;;;;;;;23.42;11.32;;;;;;;;;;4850547;29;20756;-81
2021/12/13 11:05:28;;;;;;;22.15;10.45;;;;;;;;;;4850122;29;20898;-81
2021/12/13 11:07:55;;;;;;;18.65;9.43;;;;;;;;;;4849332;29;20749;-81
2021/12/13 11:10:24;;;;;;;19.08;10.50;;;;;;;;;;4840035;29;20133;-81
2021/12/13 11:12:52;;;;;;;15.73;8.93;;;;;;;;;;4847266;29;20140;-80
2021/12/13 11:15:28;;;;;;;14.82;6.57;;;;;;;;;;4840544;29;20601;-81
2021/12/13 11:17:55;;;;;;;21.75;11.00;;;;;;;;;;4849383;29;20051;-82
2021/12/13 11:20:24;;;;;;;21.63;11.10;;;;;;;;;;4839288;29;20463;-81
2021/12/13 11:22:51;;;;;;;20.67;10.18;;;;;;;;;;4845085;29;20530;-81
2021/12/13 11:25:20;;;;;;;31.75;10.32;;;;;;;;;;4853378;29;20048;-80
2021/12/13 11:27:47;;;;;;;17.02;7.90;;;;;;;;;;4838642;29;20494;-81
2021/12/13 11:30:21;;;;;;;20.55;10.77;;;;;;;;;;4835472;29;20076;-80
2021/12/13 11:32:56;;;;;;;22.40;11.65;;;;;;;;;;4847488;29;20038;-81
2021/12/13 11:35:41;;;;;;;15.60;8.13;;;;;;;;;;4847013;29;20073;-80
2021/12/13 11:38:13;;;;;;;27.90;12.43;;;;;;;;;;4850311;29;20057;-80
2021/12/13 11:40:58;;;;;;;21.92;9.88;;;;;;;;;;4836444;29;20524;-81
2021/12/13 11:43:43;;;;;;;19.98;9.45;;;;;;;;;;4839118;29;20056;-80
2021/12/13 11:46:12;;;;;;;21.67;10.32;;;;;;;;;;4837842;29;20034;-80
2021/12/13 11:48:55;;;;;;;21.67;11.50;;;;;;;;;;4831066;29;20042;-80
2021/12/13 11:51:40;;;;;;;29.33;12.07;;;;;;;;;;4837803;29;20101;-80
2021/12/13 11:54:20;;;;;;;21.10;8.13;;;;;;;;;;4846943;29;20055;-80
2021/12/13 11:57:05;;;;;;;19.30;10.65;;;;;;;;;;4843490;29;20649;-80
2021/12/13 11:59:56;;;;;;;19.38;7.88;;;;;;;;;;4851245;29;20367;-79
2021/12/13 12:02:41;;;;;;;24.55;10.65;;;;;;;;;;4830770;29;20528;-80
2021/12/13 12:05:37;;;;;;;21.85;10.13;;;;;;;;;;4835901;29;20524;-79
2021/12/13 12:08:23;;;;;;;26.23;10.82;;;;;;;;;;4848699;29;20836;-80
2021/12/13 12:11:01;;;;;;;23.00;10.30;;;;;;;;;;4840430;29;20037;-81
2021/12/13 12:13:50;;;;;;;23.42;8.70;;;;;;;;;;4834892;29;20053;-80
2021/12/13 12:16:19;;;;;;;18.38;7.85;;;;;;;;;;4846593;29;20367;-80
2021/12/13 12:18:45;;;;;;;20.85;7.55;;;;;;;;;;4834074;29;20046;-80
2021/12/13 12:21:30;;;;;;;17.40;7.75;;;;;;;;;;4835076;29;20045;-80
2021/12/13 12:23:57;;;;;;;22.27;11.05;;;;;;;;;;4838702;29;20089;-81
2021/12/13 12:26:25;;;;;;;15.63;5.25;;;;;;;;;;4852261;29;20099;-80
2021/12/13 12:28:52;;;;;;;21.00;10.40;;;;;;;;;;4833223;29;20078;-80
2021/12/13 12:31:19;;;;;;;22.92;10.23;;;;;;;;;;4837677;29;20036;-80
2021/12/13 12:33:45;;;;;;;25.95;11.45;;;;;;;;;;4835398;29;20856;-81
2021/12/13 12:36:17;;;;;;;28.27;11.73;;;;;;;;;;4848022;29;20383;-80
2021/12/13 12:39:02;;;;;;;26.63;11.18;;;;;;;;;;4834664;29;20725;-80
2021/12/13 12:41:47;;;;;;;25.27;12.27;;;;;;;;;;4847668;29;20110;-80
2021/12/13 12:44:18;;;;;;;20.85;10.55;;;;;;;;;;4843717;29;20030;-81
2021/12/13 12:46:45;;;;;;;21.25;11.88;;;;;;;;;;4833017;29;20053;-81
2021/12/13 12:49:22;;;;;;;26.13;11.73;;;;;;;;;;4850787;29;20121;-81
2021/12/13 12:51:52;;;;;;;28.67;13.10;;;;;;;;;;4850431;29;20367;-81
2021/12/13 12:54:19;;;;;;;22.95;7.93;;;;;;;;;;4851447;29;20144;-79
2021/12/13 12:56:51;;;;;;;28.17;11.30;;;;;;;;;;4851532;29;20040;-81
2021/12/13 12:59:20;;;;;;;23.98;11.45;;;;;;;;;;4834544;29;20042;-82
2021/12/13 13:01:53;;;;;;;29.40;13.43;;;;;;;;;;4834979;29;20554;-81
2021/12/13 13:04:20;;;;;;;29.17;10.95;;;;;;;;;;4833244;29;20025;-82
2021/12/13 13:07:04;;;;;;;20.73;8.93;;;;;;;;;;4835976;29;20066;-80
2021/12/13 13:09:39;;;;;;;29.63;11.40;;;;;;;;;;4831216;29;20087;-81
2021/12/13 13:12:06;;;;;;;25.80;12.15;;;;;;;;;;4837183;29;20077;-80
2021/12/13 13:14:32;;;;;;;27.92;12.95;;;;;;;;;;4852299;29;20504;-80
2021/12/13 13:17:04;;;;;;;16.08;7.88;;;;;;;;;;4830732;29;20542;-80
2021/12/13 13:19:39;;;;;;;12.27;6.68;;;;;;;;;;4835495;29;20124;-81
2021/12/13 13:22:34;;;;;;;30.20;11.80;;;;;;;;;;4849786;29;20137;-80
2021/12/13 13:25:06;;;;;;;22.38;11.55;;;;;;;;;;4819306;29;20048;-80
2021/12/13 13:27:33;;;;;;;22.83;10.32;;;;;;;;;;4835568;29;20045;-80
2021/12/13 13:30:00;;;;;;;32.65;10.90;;;;;;;;;;4854688;29;20029;-80
2021/12/13 13:32:26;;;;;;;24.48;10.65;;;;;;;;;;4874864;29;20052;-80
2021/12/13 13:34:54;;;;;;;34.75;13.02;;;;;;;;;;4853681;29;20032;-83
2021/12/13 13:37:32;;;;;;;26.13;13.07;;;;;;;;;;4851806;29;21292;-81
2021/12/13 13:40:00;;;;;;;27.52;12.05;;;;;;;;;;4865192;29;20083;-81
2021/12/13 13:42:28;;;;;;;23.83;10.85;;;;;;;;;;4850969;29;20580;-81
2021/12/13 13:45:00;;;;;;;31.98;11.73;;;;;;;;;;4851079;29;20029;-79
2021/12/13 13:47:34;;;;;;;30.83;12.07;;;;;;;;;;4854871;29;20033;-80
2021/12/13 13:50:17;;;;;;;32.38;11.25;;;;;;;;;;4851685;29;20040;-81
2021/12/13 13:52:44;;;;;;;28.23;12.23;;;;;;;;;;4863039;29;20025;-82
2021/12/13 13:55:23;;;;;;;24.05;9.85;;;;;;;;;;4852013;29;20029;-81
2021/12/13 13:57:51;;;;;;;25.48;10.85;;;;;;;;;;4850058;29;20037;-80
2021/12/13 14:00:18;;;;;;;23.20;8.48;;;;;;;;;;4852329;29;20588;-81
2021/12/13 14:02:45;;;;;;;24.92;11.45;;;;;;;;;;4863167;29;20465;-80
2021/12/13 14:05:11;;;;;;;21.05;11.02;;;;;;;;;;4864808;29;20122;-81
2021/12/13 14:07:39;;;;;;;26.70;12.10;;;;;;;;;;4850334;29;20031;-81
2021/12/13 14:10:10;;;;;;;27.20;10.55;;;;;;;;;;4870642;29;20025;-80
2021/12/13 14:12:39;;;;;;;19.17;10.45;;;;;;;;;;4869452;29;20037;-81
2021/12/13 14:15:11;;;;;;;24.45;11.25;;;;;;;;;;4857240;29;20093;-80
2021/12/13 14:17:37;;;;;;;15.18;5.82;;;;;;;;;;4856590;29;20850;-80
2021/12/13 14:20:24;;;;;;;27.05;10.77;;;;;;;;;;4854912;29;20033;-80
2021/12/13 14:22:53;;;;;;;23.42;11.25;;;;;;;;;;4871131;29;20078;-79
2021/12/13 14:25:26;;;;;;;26.58;10.48;;;;;;;;;;4870912;29;20045;-79
2021/12/13 14:27:53;;;;;;;27.48;10.82;;;;;;;;;;4854567;29;20675;-80
2021/12/13 14:30:32;;;;;;;23.00;9.38;;;;;;;;;;4859318;29;20032;-81
2021/12/13 14:32:59;;;;;;;23.42;9.27;;;;;;;;;;4856060;29;20041;-80
2021/12/13 14:35:30;;;;;;;18.50;8.27;;;;;;;;;;4856501;29;20025;-80
2021/12/13 14:38:04;;;;;;;20.85;9.50;;;;;;;;;;4867434;29;20646;-81
2021/12/13 14:40:41;;;;;;;28.88;12.18;;;;;;;;;;4871106;29;20109;-79
2021/12/13 14:43:15;;;;;;;25.70;10.30;;;;;;;;;;4853313;29;20036;-80
2021/12/13 14:45:41;;;;;;;20.92;9.68;;;;;;;;;;4865473;29;20037;-81
2021/12/13 14:48:08;;;;;;;19.73;9.77;;;;;;;;;;4865029;29;20033;-79
2021/12/13 14:50:34;;;;;;;24.15;10.65;;;;;;;;;;4844750;29;20056;-80
2021/12/13 14:53:05;;;;;;;26.52;9.73;;;;;;;;;;4850999;29;20401;-80
2021/12/13 14:55:44;;;;;;;25.35;10.93;;;;;;;;;;4851962;29;20034;-80